AIB281 KSFO-SEQM
Flight info
| Callsign | AIB281 |
|---|---|
| Flight time | N/A |
| Altitude | 35000 |
| Route | WESLA5 SUSEY DCT EBAYE DCT OCN J1 TIJ UT4 VIKVU/N0492F370 UT4 LMM UJ6 CUL UJ12 XOSGI UT2 AGU UJ33 PBC UJ47 IZT UL318 EBDEL/N0490F390 UL318 PALAD/N0476F230 G439 QIT |
| Aircraft | A359/H-SDE2E3GHIJ3J4J5LM1ORWXY/LB1D1 |
Departure
| Time | 2026-05-04 09:51 |
|---|---|
| Airport | San Francisco International Airport (KSFO) |
Arrival
| Time | N/A |
|---|---|
| Airport | Mariscal Sucre International Airport (SEQM) |
| Time | Latitude | Longitude | Altitude | Speed | Heading |
|---|---|---|---|---|---|
| 2026-05-04 09:43 | 37.61768 | -122.37261 | 25 ft | 0 kts | 118° |
| 2026-05-04 09:49 | 37.61254 | -122.36115 | 24 ft | 38 kts | 143° |
| 2026-05-04 09:49 | 37.61157 | -122.36045 | 26 ft | 7 kts | 95° |
| 2026-05-04 09:49 | 37.61199 | -122.36000 | 24 ft | 12 kts | 16° |
| 2026-05-04 09:51 | 37.63143 | -122.40616 | 1192 ft | 165 kts | 294° |
| 2026-05-04 09:51 | 37.63653 | -122.41919 | 1621 ft | 170 kts | 298° |
| 2026-05-04 09:51 | 37.64256 | -122.43281 | 1851 ft | 185 kts | 297° |
| 2026-05-04 09:51 | 37.64640 | -122.44902 | 2017 ft | 204 kts | 271° |
| 2026-05-04 09:52 | 37.64225 | -122.46664 | 2202 ft | 221 kts | 234° |
| 2026-05-04 09:52 | 37.62951 | -122.47829 | 2469 ft | 240 kts | 197° |
| 2026-05-04 09:52 | 37.61254 | -122.47992 | 2945 ft | 249 kts | 179° |
| 2026-05-04 09:52 | 37.59501 | -122.47892 | 3519 ft | 254 kts | 178° |
| 2026-05-04 09:53 | 37.57751 | -122.47796 | 4088 ft | 257 kts | 179° |
| 2026-05-04 09:53 | 37.55959 | -122.47715 | 4702 ft | 258 kts | 179° |
| 2026-05-04 09:53 | 37.54159 | -122.47644 | 5342 ft | 259 kts | 178° |
| 2026-05-04 09:53 | 37.52369 | -122.47580 | 6076 ft | 256 kts | 177° |
| 2026-05-04 09:54 | 37.50607 | -122.47414 | 6811 ft | 253 kts | 169° |
| 2026-05-04 09:54 | 37.48915 | -122.46738 | 7327 ft | 258 kts | 153° |
| 2026-05-04 09:54 | 37.47441 | -122.45414 | 7839 ft | 264 kts | 136° |
| 2026-05-04 09:54 | 37.46154 | -122.43719 | 8403 ft | 269 kts | 132° |
| 2026-05-04 09:55 | 37.44886 | -122.41954 | 8968 ft | 274 kts | 132° |
| 2026-05-04 09:55 | 37.43610 | -122.40188 | 9567 ft | 279 kts | 132° |
| 2026-05-04 09:55 | 37.42282 | -122.38360 | 10103 ft | 285 kts | 133° |
| 2026-05-04 09:55 | 37.40910 | -122.36483 | 10438 ft | 299 kts | 133° |
| 2026-05-04 09:56 | 37.39463 | -122.34512 | 10707 ft | 314 kts | 132° |
| 2026-05-04 09:56 | 37.37944 | -122.32448 | 11008 ft | 328 kts | 132° |
| 2026-05-04 09:56 | 37.36357 | -122.30292 | 11288 ft | 342 kts | 132° |
| 2026-05-04 09:56 | 37.34711 | -122.28058 | 11554 ft | 355 kts | 132° |
| 2026-05-04 09:57 | 37.32997 | -122.25735 | 11820 ft | 367 kts | 132° |
| 2026-05-04 09:57 | 37.31240 | -122.23354 | 12196 ft | 375 kts | 132° |
| 2026-05-04 09:57 | 37.29473 | -122.20961 | 12685 ft | 380 kts | 133° |
| 2026-05-04 09:57 | 37.27664 | -122.18515 | 13188 ft | 384 kts | 132° |
| 2026-05-04 09:58 | 37.25838 | -122.16047 | 13722 ft | 387 kts | 132° |
| 2026-05-04 09:58 | 37.24000 | -122.13565 | 14244 ft | 390 kts | 132° |
| 2026-05-04 09:58 | 37.22143 | -122.11059 | 14750 ft | 392 kts | 132° |
| 2026-05-04 10:00 | 37.08819 | -121.93135 | 18294 ft | 411 kts | 133° |
| 2026-05-04 10:00 | 37.06861 | -121.90510 | 18756 ft | 414 kts | 133° |
| 2026-05-04 10:02 | 36.92766 | -121.71672 | 21948 ft | 435 kts | 134° |
| 2026-05-04 10:04 | 36.77870 | -121.51885 | 24693 ft | 458 kts | 136° |
| 2026-05-04 10:04 | 36.75701 | -121.49012 | 24977 ft | 463 kts | 136° |
| 2026-05-04 10:04 | 36.73453 | -121.46040 | 25319 ft | 466 kts | 136° |
| 2026-05-04 10:04 | 36.71253 | -121.43132 | 25637 ft | 469 kts | 137° |
| 2026-05-04 10:05 | 36.69001 | -121.40159 | 25948 ft | 473 kts | 138° |
| 2026-05-04 10:05 | 36.66725 | -121.37158 | 26196 ft | 478 kts | 138° |
| 2026-05-04 10:05 | 36.64434 | -121.34140 | 26528 ft | 481 kts | 139° |
| 2026-05-04 10:05 | 36.62129 | -121.31106 | 26861 ft | 483 kts | 139° |
| 2026-05-04 10:06 | 36.59812 | -121.28059 | 27170 ft | 486 kts | 139° |
| 2026-05-04 10:06 | 36.57474 | -121.24986 | 27465 ft | 490 kts | 140° |
| 2026-05-04 10:06 | 36.55125 | -121.21902 | 27740 ft | 493 kts | 140° |
| 2026-05-04 10:08 | 36.40719 | -121.02969 | 29300 ft | 512 kts | 140° |
| 2026-05-04 10:08 | 36.38393 | -120.99656 | 29518 ft | 516 kts | 139° |
| 2026-05-04 10:08 | 36.36068 | -120.96250 | 29868 ft | 517 kts | 139° |
| 2026-05-04 10:08 | 36.33751 | -120.92831 | 30188 ft | 517 kts | 139° |
| 2026-05-04 10:09 | 36.31428 | -120.89424 | 30490 ft | 517 kts | 140° |
| 2026-05-04 10:09 | 36.29093 | -120.86028 | 30809 ft | 516 kts | 140° |
| 2026-05-04 10:09 | 36.26753 | -120.82654 | 31017 ft | 517 kts | 140° |
| 2026-05-04 10:09 | 36.24386 | -120.79265 | 31058 ft | 521 kts | 140° |
| 2026-05-04 10:10 | 36.19635 | -120.72479 | 31046 ft | 521 kts | 140° |
| 2026-05-04 10:10 | 36.14883 | -120.65708 | 31059 ft | 520 kts | 140° |
| 2026-05-04 10:11 | 36.10156 | -120.58984 | 31055 ft | 520 kts | 140° |
| 2026-05-04 10:11 | 36.05410 | -120.52235 | 31064 ft | 519 kts | 140° |
| 2026-05-04 10:12 | 36.00662 | -120.45514 | 31049 ft | 518 kts | 140° |
| 2026-05-04 10:12 | 35.95919 | -120.38814 | 31048 ft | 517 kts | 140° |
| 2026-05-04 10:13 | 35.91188 | -120.32139 | 31047 ft | 516 kts | 140° |
| 2026-05-04 10:13 | 35.86379 | -120.25616 | 31048 ft | 509 kts | 146° |
| 2026-05-04 10:14 | 35.82120 | -120.20653 | 31045 ft | 506 kts | 147° |
| 2026-05-04 10:16 | 35.60429 | -119.96294 | 31019 ft | 509 kts | 148° |
| 2026-05-04 10:16 | 35.56047 | -119.91385 | 31038 ft | 509 kts | 148° |
| 2026-05-04 10:17 | 35.50838 | -119.85561 | 31043 ft | 509 kts | 148° |
| 2026-05-04 10:19 | 35.29866 | -119.62221 | 31033 ft | 508 kts | 148° |
| 2026-05-04 10:19 | 35.24631 | -119.56424 | 31016 ft | 507 kts | 149° |
| 2026-05-04 10:20 | 35.19437 | -119.50678 | 31026 ft | 505 kts | 149° |
| 2026-05-04 10:20 | 35.14207 | -119.44908 | 31014 ft | 506 kts | 149° |
| 2026-05-04 10:21 | 35.09018 | -119.39192 | 30987 ft | 505 kts | 150° |